Time;durP1;ratioP1;P1;durP2;ratioP2;P2;SDS_P1;SDS_P2;PMS_P1;PMS_P2;Temp;Humidity;BMP_temperature;BMP_pressure;BME280_temperature;BME280_humidity;BME280_pressure;Samples;Min_cycle;Max_cycle;Signal;HPM_P1;HPM_P2
2022/10/31 00:00:46;;;;;;;37.58;16.95;;;;;;;12.51;70.68;101227.97;5033275;28;20049;-69
2022/10/31 00:03:12;;;;;;;33.58;17.30;;;;;;;12.37;70.94;101226.72;5030724;28;20069;-66
2022/10/31 00:05:44;;;;;;;35.80;17.80;;;;;;;12.37;71.07;101228.56;5047335;28;20061;-65
2022/10/31 00:08:11;;;;;;;35.65;18.45;;;;;;;12.41;70.78;101228.06;5047761;28;20049;-65
2022/10/31 00:10:39;;;;;;;36.38;18.25;;;;;;;12.49;70.25;101235.38;5047515;28;20057;-65
2022/10/31 00:13:06;;;;;;;36.25;18.77;;;;;;;12.44;70.37;101228.75;5048335;28;20048;-65
2022/10/31 00:15:34;;;;;;;40.83;18.95;;;;;;;12.52;69.81;101235.06;5048730;28;20049;-65
2022/10/31 00:18:01;;;;;;;38.05;17.05;;;;;;;12.52;69.67;101235.06;5047420;28;20501;-65
2022/10/31 00:20:28;;;;;;;37.33;17.60;;;;;;;12.62;69.30;101229.53;5047983;28;20105;-65
2022/10/31 00:22:59;;;;;;;35.25;17.50;;;;;;;12.61;69.20;101231.38;5047639;28;20056;-65
2022/10/31 00:25:27;;;;;;;33.67;18.58;;;;;;;12.57;69.39;101240.78;5046932;28;20055;-65
2022/10/31 00:27:53;;;;;;;32.58;18.05;;;;;;;12.66;69.02;101236.28;5046918;28;20392;-65
2022/10/31 00:30:20;;;;;;;40.45;17.05;;;;;;;12.55;69.56;101241.94;5047429;28;20397;-65
2022/10/31 00:32:46;;;;;;;37.42;17.58;;;;;;;12.58;69.33;101233.53;5046759;28;20061;-65
2022/10/31 00:35:12;;;;;;;36.00;18.77;;;;;;;12.58;69.28;101247.84;5046309;28;20045;-65
2022/10/31 00:37:39;;;;;;;40.63;18.20;;;;;;;12.56;69.27;101251.72;5046703;28;20439;-65
2022/10/31 00:40:06;;;;;;;36.42;17.83;;;;;;;12.60;69.23;101253.91;5046627;28;20045;-65
2022/10/31 00:42:32;;;;;;;37.10;18.55;;;;;;;12.56;69.16;101251.72;5046700;28;20054;-65
2022/10/31 00:44:59;;;;;;;41.28;18.10;;;;;;;12.53;69.17;101257.41;5046058;28;20415;-65
2022/10/31 00:47:25;;;;;;;34.05;17.00;;;;;;;12.47;69.15;101258.06;5046959;28;20061;-65
2022/10/31 00:49:52;;;;;;;33.35;17.67;;;;;;;12.39;69.58;101265.06;5046248;28;20049;-65
2022/10/31 00:52:18;;;;;;;35.97;17.17;;;;;;;12.41;69.55;101265.75;5047280;28;20121;-66
2022/10/31 00:54:45;;;;;;;36.22;16.67;;;;;;;12.36;69.74;101273.47;5047673;28;20042;-65
2022/10/31 00:57:11;;;;;;;33.63;16.63;;;;;;;12.31;69.41;101259.63;5046401;28;20045;-65
2022/10/31 00:59:37;;;;;;;38.53;17.17;;;;;;;12.43;68.88;101260.22;5045758;28;20055;-65
2022/10/31 01:02:04;;;;;;;33.45;17.45;;;;;;;12.32;69.56;101264.03;5046158;28;20388;-65
2022/10/31 01:04:30;;;;;;;41.53;17.50;;;;;;;12.30;69.41;101267.88;5046347;28;20096;-65
2022/10/31 01:06:57;;;;;;;41.20;17.77;;;;;;;12.20;69.60;101270.66;5046539;28;20056;-65
2022/10/31 01:09:23;;;;;;;31.15;16.45;;;;;;;12.26;69.39;101270.03;5045969;28;20049;-65
2022/10/31 01:11:50;;;;;;;31.10;16.27;;;;;;;12.30;69.06;101274.09;5046818;28;20052;-65
2022/10/31 01:14:16;;;;;;;36.63;17.45;;;;;;;12.25;69.17;101276.41;5047017;28;20049;-65
2022/10/31 01:16:43;;;;;;;31.48;16.45;;;;;;;12.27;69.07;101271.72;5047003;28;20052;-65
2022/10/31 01:19:09;;;;;;;34.92;16.17;;;;;;;12.28;68.96;101270.72;5046436;28;20049;-65
2022/10/31 01:21:35;;;;;;;35.17;16.17;;;;;;;12.27;69.03;101271.72;5046554;28;20053;-65
2022/10/31 01:24:02;;;;;;;36.22;17.60;;;;;;;12.23;68.99;101270.34;5048012;28;20057;-64
2022/10/31 01:26:31;;;;;;;31.33;15.65;;;;;;;12.23;69.00;101264.13;5046936;28;20045;-65
2022/10/31 01:29:00;;;;;;;29.50;16.33;;;;;;;12.10;69.46;101277.97;5047952;28;20068;-66
2022/10/31 01:31:30;;;;;;;34.05;16.38;;;;;;;12.08;69.42;101275.47;5048160;28;20059;-66
2022/10/31 01:33:57;;;;;;;30.92;16.45;;;;;;;12.15;69.23;101278.38;5048195;28;20045;-65
2022/10/31 01:36:28;;;;;;;35.85;15.55;;;;;;;12.13;69.11;101275.81;5047248;28;20502;-64
2022/10/31 01:39:01;;;;;;;31.48;16.08;;;;;;;12.15;69.04;101279.22;5047282;28;20045;-65
2022/10/31 01:41:30;;;;;;;46.13;17.85;;;;;;;12.13;68.98;101272.28;5047362;28;20049;-65
2022/10/31 01:43:59;;;;;;;29.77;16.42;;;;;;;12.11;69.09;101274.31;5047716;28;20072;-65
2022/10/31 01:46:33;;;;;;;27.38;15.52;;;;;;;12.02;69.07;101276.06;5048019;28;20050;-64
2022/10/31 01:49:17;;;;;;;31.70;15.75;;;;;;;12.06;69.07;101271.22;5048152;28;20046;-66
2022/10/31 01:51:53;;;;;;;46.22;16.05;;;;;;;11.97;69.32;101277.53;5047989;28;20485;-64
2022/10/31 01:54:22;;;;;;;32.63;15.25;;;;;;;12.00;69.10;101285.28;5047037;28;20049;-65
2022/10/31 01:56:53;;;;;;;29.48;16.50;;;;;;;11.94;69.31;101281.41;5047581;28;20045;-66
2022/10/31 01:59:21;;;;;;;34.28;15.70;;;;;;;11.95;69.15;101282.25;5047964;28;20117;-67
2022/10/31 02:01:50;;;;;;;31.52;14.15;;;;;;;11.86;69.36;101281.31;5048296;28;20057;-69
2022/10/31 02:04:18;;;;;;;24.60;15.00;;;;;;;11.87;69.46;101289.25;5048710;28;20060;-63
2022/10/31 02:10:34;;;;;;;33.45;15.23;;;;;;;11.82;69.23;101280.78;5047544;28;20052;-65
2022/10/31 02:13:04;;;;;;;35.30;15.48;;;;;;;11.81;69.34;101276.41;5048022;28;20052;-65
2022/10/31 02:15:32;;;;;;;32.67;14.48;;;;;;;11.81;69.06;101287.16;5048036;28;20500;-65
2022/10/31 02:17:59;;;;;;;32.20;13.95;;;;;;;11.72;69.23;101284.53;5047320;28;20045;-65
2022/10/31 02:20:33;;;;;;;24.10;15.27;;;;;;;11.73;69.34;101287.09;5043857;28;20435;-66
2022/10/31 02:23:24;;;;;;;32.53;14.00;;;;;;;11.70;69.24;101287.41;5041925;28;20056;-65
2022/10/31 02:26:03;;;;;;;29.15;14.30;;;;;;;11.67;69.36;101287.72;5041091;28;20041;-66
2022/10/31 02:28:57;;;;;;;37.15;14.65;;;;;;;11.71;68.99;101281.03;5040484;28;20053;-66
2022/10/31 02:31:42;;;;;;;22.95;14.85;;;;;;;11.69;69.19;101280.34;5041298;28;20045;-66
2022/10/31 02:34:19;;;;;;;26.50;14.68;;;;;;;11.68;69.20;101281.31;5041581;28;20053;-66
2022/10/31 02:36:59;;;;;;;33.70;15.73;;;;;;;11.69;68.98;101280.34;5040071;28;20116;-66
2022/10/31 02:39:34;;;;;;;27.42;15.43;;;;;;;11.57;69.41;101287.75;5040237;28;20064;-66
2022/10/31 02:42:13;;;;;;;33.67;16.10;;;;;;;11.56;69.26;101288.75;5040380;28;20053;-66
2022/10/31 02:44:51;;;;;;;37.85;15.63;;;;;;;11.54;69.20;101296.09;5038622;28;20101;-66
2022/10/31 02:47:24;;;;;;;27.02;14.48;;;;;;;11.53;69.31;101298.97;5037180;28;20533;-67
2022/10/31 02:49:50;;;;;;;28.70;13.98;;;;;;;11.51;69.40;101299.09;5037470;28;20125;-66
2022/10/31 02:52:26;;;;;;;33.78;14.90;;;;;;;11.49;69.55;101305.66;5037863;28;20060;-66
2022/10/31 02:54:53;;;;;;;28.63;14.98;;;;;;;11.49;69.36;101300.28;5036743;28;20051;-66
2022/10/31 02:57:25;;;;;;;30.35;14.90;;;;;;;11.48;69.51;101304.78;5036780;28;20052;-66
2022/10/31 03:00:01;;;;;;;32.63;16.45;;;;;;;11.45;69.37;101303.25;5036608;28;20049;-66
2022/10/31 03:02:46;;;;;;;36.05;14.18;;;;;;;11.46;69.29;101317.53;5037067;28;20061;-66
2022/10/31 03:05:46;;;;;;;35.03;15.63;;;;;;;11.41;69.55;101314.44;5037022;28;20050;-66
2022/10/31 03:08:13;;;;;;;35.15;14.68;;;;;;;11.45;69.58;101315.84;5036804;28;20041;-66
2022/10/31 03:10:56;;;;;;;32.17;14.40;;;;;;;11.44;69.55;101309.59;5036589;28;20045;-66
2022/10/31 03:13:55;;;;;;;32.92;15.65;;;;;;;11.44;69.40;101311.44;5036877;28;20049;-66
2022/10/31 03:16:32;;;;;;;29.05;15.07;;;;;;;11.37;69.50;101319.25;5036929;28;20054;-65
2022/10/31 03:19:11;;;;;;;33.83;14.18;;;;;;;11.36;69.74;101319.44;5036949;28;20053;-65
2022/10/31 03:21:43;;;;;;;28.67;14.57;;;;;;;11.36;69.79;101316.75;5037162;28;20052;-66
2022/10/31 03:24:12;;;;;;;32.13;15.80;;;;;;;11.33;69.78;101323.25;5036626;28;20056;-65
2022/10/31 03:26:44;;;;;;;26.02;15.13;;;;;;;11.32;69.86;101321.56;5037418;28;20057;-65
2022/10/31 03:29:15;;;;;;;28.60;14.25;;;;;;;11.35;69.81;101328.50;5036336;28;20052;-66
2022/10/31 03:32:40;;;;;;;38.00;14.98;;;;;;;11.25;70.20;101338.44;5037083;28;20045;-66
2022/10/31 03:35:09;;;;;;;30.63;14.57;;;;;;;11.29;70.11;101337.16;4975203;28;20047;-65
2022/10/31 03:37:37;;;;;;;29.23;14.27;;;;;;;11.30;69.89;101338.81;4975932;28;20054;-65
2022/10/31 03:40:07;;;;;;;33.95;14.35;;;;;;;11.33;69.67;101341.22;4976508;28;20047;-65
2022/10/31 03:42:41;;;;;;;28.30;14.68;;;;;;;11.30;69.83;101349.56;4976374;28;20112;-66
2022/10/31 03:45:07;;;;;;;29.80;15.25;;;;;;;11.29;69.96;101343.34;4976336;28;20054;-65
2022/10/31 03:47:37;;;;;;;40.53;15.30;;;;;;;11.26;69.60;101349.03;4976256;28;20070;-65
2022/10/31 03:50:07;;;;;;;32.38;14.88;;;;;;;11.19;70.11;101353.31;4977889;28;20507;-65
2022/10/31 03:52:41;;;;;;;32.08;14.43;;;;;;;11.21;69.92;101343.28;4969135;28;20053;-66
2022/10/31 03:55:16;;;;;;;30.92;14.45;;;;;;;11.23;69.90;101354.69;4977431;28;20513;-65
2022/10/31 03:58:02;;;;;;;34.20;15.80;;;;;;;11.23;69.86;101347.47;4977038;28;20042;-65
2022/10/31 04:00:31;;;;;;;28.95;14.52;;;;;;;11.22;69.79;101350.31;4976088;28;20046;-65
2022/10/31 04:03:07;;;;;;;27.92;14.75;;;;;;;11.25;69.63;101349.19;4976722;28;20050;-65
2022/10/31 04:05:35;;;;;;;41.25;14.98;;;;;;;11.15;69.86;101357.28;5006167;28;20049;-65
2022/10/31 04:08:08;;;;;;;38.78;15.73;;;;;;;11.17;69.62;101355.28;5036890;28;20048;-66
2022/10/31 04:10:38;;;;;;;29.52;14.95;;;;;;;11.16;69.88;101354.44;5038280;28;20051;-66
2022/10/31 04:13:13;;;;;;;35.88;13.90;;;;;;;11.18;69.70;101357.00;5037448;28;20046;-66
2022/10/31 04:15:43;;;;;;;34.42;14.77;;;;;;;11.17;69.64;101355.28;5037795;28;20037;-67
2022/10/31 04:18:09;;;;;;;24.30;13.77;;;;;;;11.12;69.85;101355.72;5037358;28;20049;-65
2022/10/31 04:20:39;;;;;;;28.30;14.07;;;;;;;11.14;69.86;101366.34;5037301;28;20046;-65
2022/10/31 04:23:19;;;;;;;29.92;15.60;;;;;;;11.09;69.99;101355.19;5037256;28;20515;-65
2022/10/31 04:25:45;;;;;;;32.60;13.93;;;;;;;11.11;69.86;101355.91;5037679;28;20423;-65
2022/10/31 04:28:12;;;;;;;24.98;14.50;;;;;;;11.09;70.04;101358.72;5037678;28;20056;-65
2022/10/31 04:30:38;;;;;;;36.08;14.65;;;;;;;11.11;70.11;101361.28;5037648;28;20060;-66
2022/10/31 04:33:05;;;;;;;36.08;15.98;;;;;;;11.12;70.00;101369.16;5037481;28;20476;-65
2022/10/31 04:35:31;;;;;;;27.77;14.45;;;;;;;11.10;70.01;101370.28;5036474;28;20068;-66
2022/10/31 04:37:58;;;;;;;35.17;14.48;;;;;;;11.10;69.98;101370.28;5036786;28;20045;-66
2022/10/31 04:40:24;;;;;;;32.20;13.52;;;;;;;11.05;70.32;101361.84;5036897;28;20045;-66
2022/10/31 04:42:51;;;;;;;27.80;13.90;;;;;;;11.05;70.14;101368.06;5037342;28;20500;-66
2022/10/31 04:45:17;;;;;;;37.42;14.07;;;;;;;11.09;70.07;101376.66;5041442;28;20523;-66
2022/10/31 04:47:46;;;;;;;32.58;14.27;;;;;;;11.03;70.12;101380.78;5040631;28;20045;-65
2022/10/31 04:50:13;;;;;;;28.60;14.60;;;;;;;11.08;70.19;101372.31;5040439;28;20044;-66
2022/10/31 04:52:42;;;;;;;29.10;14.13;;;;;;;11.00;70.33;101373.03;5041484;28;20042;-65
2022/10/31 04:55:09;;;;;;;26.88;14.15;;;;;;;11.01;70.17;101365.84;5034595;28;20053;-66
2022/10/31 04:57:43;;;;;;;34.75;14.30;;;;;;;10.97;70.26;101371.50;5041992;28;20493;-66
2022/10/31 05:00:12;;;;;;;35.80;14.43;;;;;;;11.02;69.99;101370.19;5040721;28;20044;-66
2022/10/31 05:02:50;;;;;;;28.70;14.10;;;;;;;11.02;70.22;101370.19;5041318;28;20045;-66
2022/10/31 05:05:18;;;;;;;30.58;14.73;;;;;;;11.01;70.13;101373.88;5040751;28;20031;-66
2022/10/31 05:07:46;;;;;;;42.85;15.57;;;;;;;10.97;70.32;101384.06;5039992;28;20502;-65
2022/10/31 05:10:18;;;;;;;38.17;15.48;;;;;;;10.99;70.18;101379.38;5040947;28;20056;-65
2022/10/31 05:12:47;;;;;;;29.92;14.73;;;;;;;10.95;70.27;101376.16;5039954;28;20052;-65
2022/10/31 05:15:14;;;;;;;29.45;13.50;;;;;;;10.98;70.21;101378.53;5045236;28;20413;-66
2022/10/31 05:17:41;;;;;;;28.60;13.93;;;;;;;10.95;70.14;101375.31;5047285;28;20452;-65
2022/10/31 05:20:08;;;;;;;32.58;14.18;;;;;;;10.95;70.15;101378.00;5047848;28;20061;-65
2022/10/31 05:22:34;;;;;;;30.20;14.60;;;;;;;10.90;70.33;101386.50;5048120;28;20096;-65
2022/10/31 05:25:00;;;;;;;30.88;13.85;;;;;;;10.90;70.28;101383.81;5046129;28;20049;-64
2022/10/31 05:27:27;;;;;;;35.10;14.82;;;;;;;10.91;70.22;101380.13;5045811;28;20049;-65
2022/10/31 05:29:53;;;;;;;33.83;14.95;;;;;;;10.90;70.32;101391.03;5046909;28;20048;-67
2022/10/31 05:32:20;;;;;;;46.55;14.82;;;;;;;10.93;70.01;101386.22;5045115;28;20464;-65
2022/10/31 05:34:46;;;;;;;32.30;14.10;;;;;;;10.90;70.26;101386.50;5046156;28;20137;-65
2022/10/31 05:37:13;;;;;;;32.72;13.98;;;;;;;10.84;70.51;101389.75;5044228;28;20497;-66
2022/10/31 05:39:39;;;;;;;40.72;15.73;;;;;;;10.79;70.58;101389.38;5044639;28;20060;-64
2022/10/31 05:42:05;;;;;;;25.73;14.77;;;;;;;10.77;70.58;101391.34;5044313;28;20045;-66
2022/10/31 05:44:32;;;;;;;30.48;13.95;;;;;;;10.79;70.69;101392.03;5039734;28;20052;-64
2022/10/31 05:46:58;;;;;;;34.70;14.35;;;;;;;10.76;70.80;101395.03;5044488;28;20049;-65
2022/10/31 05:49:25;;;;;;;32.72;14.55;;;;;;;10.80;70.80;101393.72;5045034;28;20041;-65
2022/10/31 05:51:51;;;;;;;30.20;14.35;;;;;;;10.81;70.79;101406.16;5044370;28;20045;-65
2022/10/31 05:54:18;;;;;;;41.22;15.50;;;;;;;10.82;70.79;101397.09;5043431;28;20048;-67
2022/10/31 05:56:44;;;;;;;38.42;15.25;;;;;;;10.84;70.58;101403.19;5043213;28;20056;-65
2022/10/31 05:59:11;;;;;;;34.90;14.57;;;;;;;10.79;70.73;101393.84;5043927;28;20497;-64
2022/10/31 06:01:37;;;;;;;27.00;14.32;;;;;;;10.82;70.71;101407.00;5043051;28;20053;-65
2022/10/31 06:04:04;;;;;;;28.35;13.55;;;;;;;10.84;70.58;101405.03;5043896;28;20099;-63
2022/10/31 06:06:30;;;;;;;30.77;14.25;;;;;;;10.78;70.77;101406.44;5043958;28;20056;-65
2022/10/31 06:08:57;;;;;;;36.42;14.65;;;;;;;10.82;70.73;101409.66;5040428;28;20049;-64
2022/10/31 06:11:23;;;;;;;38.67;15.90;;;;;;;10.80;70.78;101412.53;5044522;28;20051;-66
2022/10/31 06:13:50;;;;;;;29.23;14.60;;;;;;;10.80;70.68;101412.53;5043353;28;20046;-64
2022/10/31 06:16:16;;;;;;;23.60;13.65;;;;;;;10.84;70.75;101411.22;5045027;28;20050;-64
2022/10/31 06:18:42;;;;;;;31.17;15.20;;;;;;;10.78;70.87;101408.28;5042848;28;20056;-64
2022/10/31 06:21:09;;;;;;;30.17;15.05;;;;;;;10.85;70.74;101410.22;5038107;28;20059;-65
2022/10/31 06:23:40;;;;;;;32.70;14.60;;;;;;;10.82;70.83;101407.00;5040453;28;20049;-65
2022/10/31 06:26:06;;;;;;;36.00;15.23;;;;;;;10.88;70.57;101407.25;5045011;28;20300;-66
2022/10/31 06:28:33;;;;;;;37.25;14.77;;;;;;;10.89;70.58;101411.63;5044255;28;20121;-64
2022/10/31 06:30:59;;;;;;;27.42;14.70;;;;;;;10.91;70.65;101414.19;5045240;28;20049;-64
2022/10/31 06:33:26;;;;;;;31.50;14.25;;;;;;;10.93;70.56;101418.44;5044998;28;20060;-66
2022/10/31 06:35:52;;;;;;;28.50;13.77;;;;;;;10.87;70.83;101429.72;5045713;28;20046;-66
2022/10/31 06:38:18;;;;;;;29.92;16.10;;;;;;;10.94;70.62;101433.53;5044737;28;20045;-66
2022/10/31 06:40:45;;;;;;;36.28;14.52;;;;;;;11.06;70.32;101431.50;5043760;28;20048;-66
2022/10/31 06:43:11;;;;;;;31.52;14.27;;;;;;;11.09;70.19;101438.44;5043598;28;20049;-66
2022/10/31 06:45:38;;;;;;;33.80;15.52;;;;;;;11.08;70.18;101436.75;5044806;28;20045;-66
2022/10/31 06:48:05;;;;;;;37.22;15.45;;;;;;;11.13;70.17;101434.44;5042995;28;20048;-65
2022/10/31 06:50:47;;;;;;;31.67;14.00;;;;;;;11.22;69.76;101436.28;5044580;28;20053;-65
2022/10/31 06:53:14;;;;;;;37.90;15.50;;;;;;;11.15;70.19;101429.78;5044877;28;20065;-65
2022/10/31 06:55:41;;;;;;;37.58;15.18;;;;;;;11.23;69.89;101446.00;5045056;28;20046;-66
2022/10/31 06:58:10;;;;;;;30.70;15.27;;;;;;;11.22;70.07;101455.06;5045410;28;20045;-66
2022/10/31 07:00:37;;;;;;;34.88;16.10;;;;;;;11.32;69.72;101450.50;5045862;28;20121;-66
2022/10/31 07:03:05;;;;;;;38.05;15.27;;;;;;;11.38;69.55;101455.31;5043571;28;20128;-66
2022/10/31 07:05:32;;;;;;;38.13;16.08;;;;;;;11.50;69.49;101463.16;5044690;28;20568;-66
2022/10/31 07:08:01;;;;;;;45.35;15.25;;;;;;;11.58;69.17;101461.41;5043396;28;20056;-66
2022/10/31 07:10:30;;;;;;;38.67;16.42;;;;;;;11.65;69.15;101457.13;5044916;28;20045;-66
2022/10/31 07:13:06;;;;;;;38.35;17.35;;;;;;;11.80;68.60;101460.22;5044591;28;20045;-67
2022/10/31 07:15:35;;;;;;;42.92;20.00;;;;;;;11.86;68.65;101459.63;5043803;28;20586;-66
2022/10/31 07:18:03;;;;;;;39.08;19.88;;;;;;;11.98;68.46;101459.41;5043922;28;20059;-65
2022/10/31 07:20:31;;;;;;;41.97;15.30;;;;;;;12.03;68.23;101465.16;5044331;28;20045;-66
2022/10/31 07:22:58;;;;;;;33.47;14.75;;;;;;;12.17;67.62;101472.72;5043429;28;20049;-69
2022/10/31 07:25:24;;;;;;;39.78;15.05;;;;;;;12.30;67.57;101467.81;5043429;28;20045;-65
2022/10/31 07:27:51;;;;;;;29.88;13.95;;;;;;;12.40;67.36;101468.56;5042950;28;20045;-66
2022/10/31 07:30:18;;;;;;;31.80;13.82;;;;;;;12.44;67.16;101469.09;5042656;28;20053;-66
2022/10/31 07:32:49;;;;;;;34.17;14.18;;;;;;;12.67;66.64;101466.78;5042014;28;20519;-66
2022/10/31 07:35:18;;;;;;;35.33;15.73;;;;;;;12.78;66.42;101469.25;5042785;28;20041;-66
2022/10/31 07:37:45;;;;;;;34.33;14.55;;;;;;;12.84;66.35;101475.88;5042498;28;20045;-66
2022/10/31 07:40:12;;;;;;;31.05;13.70;;;;;;;12.99;66.09;101474.28;5042469;28;20046;-66
2022/10/31 07:42:43;;;;;;;38.08;13.55;;;;;;;13.12;65.49;101473.88;5035944;28;20041;-65
2022/10/31 07:45:12;;;;;;;32.35;13.55;;;;;;;13.21;65.48;101478.31;5041925;28;20544;-65
2022/10/31 07:47:46;;;;;;;33.05;13.30;;;;;;;13.30;65.22;101477.34;5042141;28;20045;-65
2022/10/31 07:50:22;;;;;;;32.22;14.20;;;;;;;13.44;65.03;101484.00;5041686;28;20057;-66
2022/10/31 07:52:57;;;;;;;31.38;13.68;;;;;;;13.32;64.87;101486.13;5042696;28;20053;-65
2022/10/31 07:55:23;;;;;;;38.72;14.52;;;;;;;13.52;64.90;101491.28;5042044;28;20052;-65
2022/10/31 07:58:04;;;;;;;33.58;14.93;;;;;;;13.50;65.00;101490.63;5042437;28;20053;-65
2022/10/31 08:00:33;;;;;;;30.50;15.18;;;;;;;13.58;64.85;101487.94;5042072;28;20041;-66
2022/10/31 08:03:05;;;;;;;40.22;15.68;;;;;;;13.46;65.29;101498.19;5042568;28;20053;-67
2022/10/31 08:05:32;;;;;;;38.03;16.80;;;;;;;13.39;65.74;101496.25;5041353;28;20056;-66
2022/10/31 08:07:59;;;;;;;38.97;15.70;;;;;;;13.33;66.05;101490.50;5041848;28;20052;-66
2022/10/31 08:10:27;;;;;;;41.67;16.40;;;;;;;13.30;65.71;101493.53;5041137;28;20045;-65
2022/10/31 08:13:13;;;;;;;38.05;17.08;;;;;;;13.48;65.58;101498.84;5036307;28;20099;-66
2022/10/31 08:15:41;;;;;;;37.70;17.85;;;;;;;13.65;65.26;101499.78;5052085;28;20042;-66
2022/10/31 08:18:14;;;;;;;35.58;18.05;;;;;;;13.52;64.98;101502.06;5044508;28;20127;-65
2022/10/31 08:20:42;;;;;;;42.20;18.25;;;;;;;13.66;64.99;101506.84;5045490;28;20049;-66
2022/10/31 08:23:10;;;;;;;35.88;17.52;;;;;;;13.62;65.33;101508.19;5046450;28;20060;-66
2022/10/31 08:25:37;;;;;;;42.22;18.15;;;;;;;13.61;65.20;101511.88;5046013;28;20059;-65
2022/10/31 08:28:06;;;;;;;41.97;18.77;;;;;;;13.53;65.12;101509.16;5041090;28;20132;-66
2022/10/31 08:30:34;;;;;;;43.67;18.48;;;;;;;13.54;65.50;101498.22;5043295;28;20053;-65
2022/10/31 08:33:13;;;;;;;38.88;17.85;;;;;;;13.75;64.74;101513.13;5043995;28;20041;-68
2022/10/31 08:35:39;;;;;;;40.28;19.45;;;;;;;13.65;64.89;101512.41;5043991;28;20056;-67
2022/10/31 08:38:08;;;;;;;38.85;18.67;;;;;;;13.87;64.49;101500.22;5044399;28;20049;-66
2022/10/31 08:40:35;;;;;;;49.10;19.15;;;;;;;13.49;65.57;101508.63;5041519;28;20428;-68
2022/10/31 08:43:04;;;;;;;39.03;17.98;;;;;;;13.74;65.34;101498.81;5044579;28;20389;-66
2022/10/31 08:45:33;;;;;;;38.40;18.30;;;;;;;14.04;63.96;101494.72;5046309;28;20052;-68
2022/10/31 08:48:01;;;;;;;46.80;20.05;;;;;;;14.02;64.19;101495.91;5045549;28;20484;-66
2022/10/31 08:50:29;;;;;;;43.80;19.40;;;;;;;14.45;62.66;101500.19;5043678;28;20045;-66
2022/10/31 08:53:03;;;;;;;44.95;19.42;;;;;;;14.23;63.17;101500.84;5046749;28;20481;-66
2022/10/31 08:55:34;;;;;;;42.00;20.08;;;;;;;14.03;63.91;101501.13;5045537;28;20061;-68
2022/10/31 08:58:01;;;;;;;48.03;19.23;;;;;;;14.34;62.85;101503.22;5046681;28;20045;-67
2022/10/31 09:00:28;;;;;;;48.65;19.80;;;;;;;14.46;62.41;101511.84;5045107;28;20049;-66
2022/10/31 09:03:01;;;;;;;37.92;18.88;;;;;;;14.65;61.96;101511.53;5046188;28;20045;-66
2022/10/31 09:05:27;;;;;;;46.97;19.88;;;;;;;14.76;61.59;101513.09;5045561;28;20056;-67
2022/10/31 09:07:58;;;;;;;44.22;19.08;;;;;;;14.89;61.22;101518.00;5045577;28;20045;-66
2022/10/31 09:10:26;;;;;;;;;;;;;;;14.96;60.61;101519.84;5043308;28;20045;-66
2022/10/31 09:13:15;;;;;;;44.63;20.00;;;;;;;14.94;60.50;101526.44;5039595;28;19928;-67
2022/10/31 09:15:43;;;;;;;43.13;20.27;;;;;;;14.82;60.91;101519.69;5036747;28;20037;-68
2022/10/31 09:18:11;;;;;;;46.30;19.85;;;;;;;14.76;61.32;101519.34;5036238;28;20408;-66
2022/10/31 09:20:39;;;;;;;46.60;20.40;;;;;;;14.63;61.66;101518.13;5036651;28;20051;-68
2022/10/31 09:23:11;;;;;;;45.45;20.25;;;;;;;14.96;60.99;101525.25;5035866;28;20105;-69
2022/10/31 09:25:38;;;;;;;37.70;19.60;;;;;;;15.05;60.73;101519.81;5037199;28;20049;-68
2022/10/31 09:28:06;;;;;;;39.50;20.92;;;;;;;15.06;60.30;101522.38;5037969;28;20049;-69
2022/10/31 09:30:35;;;;;;;41.22;19.40;;;;;;;15.04;60.26;101520.84;5035945;28;20107;-69
2022/10/31 09:33:04;;;;;;;42.38;19.60;;;;;;;15.40;59.70;101524.03;5031535;28;20041;-68
2022/10/31 09:35:31;;;;;;;40.33;18.83;;;;;;;15.77;58.73;101525.28;5036034;28;20487;-68
2022/10/31 09:37:59;;;;;;;43.00;18.83;;;;;;;15.75;58.19;101530.88;5036402;28;20041;-68
2022/10/31 09:40:48;;;;;;;32.72;18.27;;;;;;;15.25;59.55;101537.38;5035751;28;20049;-69
2022/10/31 09:43:21;;;;;;;47.38;19.88;;;;;;;15.30;59.66;101535.03;5036605;28;20057;-68
2022/10/31 09:46:01;;;;;;;39.63;19.98;;;;;;;15.44;59.24;101533.47;5036298;28;20047;-68
2022/10/31 09:48:47;;;;;;;39.28;19.67;;;;;;;15.25;59.81;101542.78;5036040;28;20042;-68
2022/10/31 09:51:22;;;;;;;45.22;20.13;;;;;;;15.25;59.88;101543.63;5034492;28;20056;-68
2022/10/31 09:53:55;;;;;;;45.55;18.63;;;;;;;15.38;59.82;101540.41;5035390;28;20164;-68
2022/10/31 09:56:23;;;;;;;41.70;19.90;;;;;;;15.95;58.92;101539.41;5024691;28;20056;-68
2022/10/31 09:59:00;;;;;;;34.05;18.02;;;;;;;16.83;56.59;101540.94;5035299;28;20046;-68
2022/10/31 10:01:44;;;;;;;39.55;17.30;;;;;;;17.45;54.08;101540.72;5034787;28;20060;-68
2022/10/31 10:04:46;;;;;;;36.92;16.90;;;;;;;18.14;52.94;101539.56;5033420;28;20060;-69
2022/10/31 10:07:45;;;;;;;41.22;18.00;;;;;;;18.22;51.90;101534.06;5034539;28;20052;-68
2022/10/31 10:10:22;;;;;;;39.83;17.27;;;;;;;18.35;51.39;101527.94;5007107;28;20055;-68
2022/10/31 10:13:02;;;;;;;33.90;16.48;;;;;;;18.23;51.19;101528.41;5039578;28;20412;-68
2022/10/31 10:16:23;;;;;;;31.67;17.23;;;;;;;17.90;52.14;101525.28;5034290;28;20045;-69
2022/10/31 10:19:07;;;;;;;43.00;17.75;;;;;;;17.65;52.61;101530.19;4997932;28;20053;-68
2022/10/31 10:22:04;;;;;;;49.85;19.00;;;;;;;17.72;52.87;101527.56;5034166;28;20055;-69
2022/10/31 10:24:45;;;;;;;40.53;17.65;;;;;;;18.14;52.04;101518.69;5031648;28;20045;-68
2022/10/31 10:27:33;;;;;;;35.95;18.75;;;;;;;18.28;51.86;101512.41;5014564;28;20053;-68
2022/10/31 10:30:15;;;;;;;37.08;18.00;;;;;;;18.58;50.98;101514.16;5014922;28;20037;-67
2022/10/31 10:32:44;;;;;;;;;;;;;;;18.87;50.25;101519.47;5014364;28;20046;-69
2022/10/31 10:35:21;;;;;;;36.20;18.15;;;;;;;18.75;50.81;101504.69;5008953;28;19956;-68
2022/10/31 10:37:52;;;;;;;40.05;18.02;;;;;;;19.10;50.08;101511.09;5014841;28;20060;-69
2022/10/31 10:40:28;;;;;;;29.52;16.08;;;;;;;19.14;49.69;101503.38;5008155;28;20050;-68
2022/10/31 10:43:20;;;;;;;38.00;20.15;;;;;;;19.31;48.88;101501.19;5012951;28;20057;-68
2022/10/31 10:48:52;;;;;;;46.50;20.02;;;;;;;19.58;48.34;101499.47;5013461;28;20041;-68
2022/10/31 10:51:28;;;;;;;39.80;17.58;;;;;;;19.59;48.24;101504.72;5013032;28;20512;-68
2022/10/31 10:54:46;;;;;;;33.13;18.83;;;;;;;19.96;47.67;101508.91;5012268;28;20456;-68
2022/10/31 10:57:31;;;;;;;44.30;20.73;;;;;;;20.19;47.18;101514.00;5012446;28;20045;-68
2022/10/31 11:00:01;;;;;;;40.33;19.35;;;;;;;20.33;46.74;101501.28;5013745;28;20052;-67
2022/10/31 11:02:32;;;;;;;48.58;18.38;;;;;;;20.03;47.23;101497.19;5012890;28;20053;-67
2022/10/31 11:05:01;;;;;;;50.53;20.35;;;;;;;20.22;46.81;101499.16;5013158;28;20046;-68
2022/10/31 11:07:38;;;;;;;39.63;18.95;;;;;;;20.34;46.93;101499.38;5010797;28;20425;-68
2022/10/31 11:10:12;;;;;;;39.33;16.80;;;;;;;20.42;46.76;101502.78;5011248;28;20053;-67
2022/10/31 11:12:40;;;;;;;38.25;18.15;;;;;;;20.60;46.25;101498.63;5013362;28;20444;-68
2022/10/31 11:15:22;;;;;;;46.17;18.67;;;;;;;20.55;46.41;101498.41;5013358;28;20125;-67
2022/10/31 11:17:52;;;;;;;36.05;19.20;;;;;;;20.61;46.31;101489.41;5013263;28;20050;-68
2022/10/31 11:20:18;;;;;;;53.20;18.02;;;;;;;20.91;45.20;101487.94;5012703;28;20137;-68
2022/10/31 11:22:47;;;;;;;40.63;19.13;;;;;;;21.37;44.45;101489.78;5012295;28;20049;-68
2022/10/31 11:25:21;;;;;;;39.47;16.42;;;;;;;21.41;44.52;101482.00;5012681;28;20420;-68
2022/10/31 11:28:18;;;;;;;33.88;17.42;;;;;;;21.79;43.20;101493.03;5012575;28;20048;-68
2022/10/31 11:30:52;;;;;;;44.78;18.50;;;;;;;22.20;42.50;101486.34;5012748;28;20046;-68
2022/10/31 11:33:26;;;;;;;33.60;17.42;;;;;;;22.37;42.24;101481.19;5012450;28;20428;-68
2022/10/31 11:35:54;;;;;;;39.33;18.25;;;;;;;23.04;40.62;101484.25;5012293;28;20054;-68